Time;durP1;ratioP1;P1;durP2;ratioP2;P2;SDS_P1;SDS_P2;PMS_P1;PMS_P2;Temp;Humidity;BMP_temperature;BMP_pressure;BME280_temperature;BME280_humidity;BME280_pressure;Samples;Min_cycle;Max_cycle;Signal;HPM_P1;HPM_P2
2023/10/06 00:00:40;;;;;;;8.80;6.03;;;;;;;13.45;72.49;96596.44;5033654;28;20305;-83
2023/10/06 00:03:10;;;;;;;11.40;5.60;;;;;;;13.45;72.24;96592.06;5032193;28;20221;-80
2023/10/06 00:05:37;;;;;;;8.43;5.00;;;;;;;13.51;72.23;96590.56;5033147;28;20233;-80
2023/10/06 00:08:07;;;;;;;9.87;5.10;;;;;;;13.59;71.92;96585.38;5032512;28;20222;-82
2023/10/06 00:10:36;;;;;;;7.18;5.20;;;;;;;13.57;71.84;96568.41;5033735;28;20233;-81
2023/10/06 00:13:05;;;;;;;8.73;5.00;;;;;;;13.62;71.39;96559.16;5033393;28;20190;-81
2023/10/06 00:15:38;;;;;;;8.43;5.82;;;;;;;13.44;71.20;96549.06;5023293;28;20290;-81
2023/10/06 00:18:07;;;;;;;8.67;5.13;;;;;;;13.36;71.56;96556.84;5022636;28;20241;-81
2023/10/06 00:20:42;;;;;;;6.43;4.93;;;;;;;13.24;71.90;96568.56;5033504;28;20202;-81
2023/10/06 00:23:12;;;;;;;7.27;5.30;;;;;;;13.24;72.27;96585.88;5037183;28;20228;-82
2023/10/06 00:25:42;;;;;;;11.43;5.33;;;;;;;13.25;72.48;96582.31;5026107;28;20206;-81
2023/10/06 00:28:17;;;;;;;7.23;4.90;;;;;;;13.24;72.30;96585.88;5029160;28;20261;-82
2023/10/06 00:30:46;;;;;;;7.47;5.23;;;;;;;13.30;72.03;96583.41;5031714;28;20197;-81
2023/10/06 00:33:13;;;;;;;7.43;4.70;;;;;;;13.39;71.79;96577.22;5031863;28;20220;-81
2023/10/06 00:35:40;;;;;;;7.30;4.40;;;;;;;13.40;71.86;96567.69;5013052;28;20210;-81
2023/10/06 00:38:12;;;;;;;6.63;4.73;;;;;;;13.38;71.74;96570.44;5013464;28;20223;-81
2023/10/06 00:40:50;;;;;;;6.47;4.93;;;;;;;13.31;72.06;96581.63;5025236;28;20224;-83
2023/10/06 00:43:28;;;;;;;7.47;4.40;;;;;;;13.32;71.88;96576.28;5028227;28;20214;-81
2023/10/06 00:46:00;;;;;;;6.70;4.57;;;;;;;13.40;71.63;96572.84;5031757;28;20706;-83
2023/10/06 00:48:29;;;;;;;7.13;4.50;;;;;;;13.39;71.45;96553.13;5033143;28;20226;-82
2023/10/06 00:50:57;;;;;;;7.50;4.80;;;;;;;13.26;71.66;96558.88;5031761;28;20294;-81
2023/10/06 00:53:31;;;;;;;7.43;4.50;;;;;;;13.28;71.83;96556.09;5032436;28;20204;-81
2023/10/06 00:56:00;;;;;;;7.00;4.67;;;;;;;13.25;71.61;96546.09;5032854;28;20225;-81
2023/10/06 00:58:30;;;;;;;7.53;4.57;;;;;;;13.24;71.14;96553.06;5032529;28;20217;-81
2023/10/06 01:00:56;;;;;;;6.20;4.80;;;;;;;13.14;71.42;96544.66;5032640;28;20749;-81
2023/10/06 01:03:25;;;;;;;6.80;4.77;;;;;;;13.15;71.58;96554.06;5032265;28;20218;-81
2023/10/06 01:05:56;;;;;;;6.27;4.30;;;;;;;13.11;72.03;96556.13;5030652;28;20396;-82
2023/10/06 01:08:23;;;;;;;6.87;4.97;;;;;;;13.05;71.86;96558.59;5031800;28;20227;-82
2023/10/06 01:10:51;;;;;;;6.73;4.57;;;;;;;13.00;71.88;96559.09;5032456;28;20209;-81
2023/10/06 01:13:19;;;;;;;7.70;4.37;;;;;;;12.97;71.89;96558.63;5031755;28;20190;-81
2023/10/06 01:15:49;;;;;;;7.77;4.57;;;;;;;12.88;72.17;96573.38;5020132;28;20570;-82
2023/10/06 01:18:23;;;;;;;6.97;4.47;;;;;;;12.86;72.33;96577.88;5012006;28;20261;-80
2023/10/06 01:20:50;;;;;;;5.73;4.20;;;;;;;12.89;72.50;96582.72;5012302;28;20202;-82
2023/10/06 01:23:21;;;;;;;8.20;4.77;;;;;;;12.79;73.55;96601.00;5029232;28;20225;-81
2023/10/06 01:25:53;;;;;;;5.63;3.90;;;;;;;12.84;72.81;96592.75;5021770;28;20210;-82
2023/10/06 01:28:19;;;;;;;5.77;4.03;;;;;;;12.97;72.39;96589.63;5026315;28;20228;-81
2023/10/06 01:30:46;;;;;;;6.07;4.10;;;;;;;13.01;72.20;96578.00;5032299;28;20213;-81
2023/10/06 01:33:12;;;;;;;6.20;4.13;;;;;;;12.94;72.03;96567.50;5031652;28;20225;-81
2023/10/06 01:35:42;;;;;;;5.77;4.53;;;;;;;12.94;71.80;96566.69;5031419;28;20213;-81
2023/10/06 01:38:19;;;;;;;6.33;4.07;;;;;;;12.93;71.70;96555.56;5030214;28;20602;-81
2023/10/06 01:40:52;;;;;;;6.00;4.37;;;;;;;12.93;71.96;96558.13;5031912;28;20586;-82
2023/10/06 01:43:22;;;;;;;6.83;4.33;;;;;;;12.90;71.65;96552.50;5026631;28;20221;-82
2023/10/06 01:45:49;;;;;;;6.50;4.30;;;;;;;12.85;71.66;96550.44;5032027;28;20210;-81
2023/10/06 01:48:28;;;;;;;7.63;4.30;;;;;;;12.80;71.76;96555.28;5032360;28;20222;-81
2023/10/06 01:50:55;;;;;;;6.93;4.33;;;;;;;12.74;71.69;96553.34;5031899;28;20198;-80
2023/10/06 01:53:21;;;;;;;7.07;4.30;;;;;;;12.78;71.95;96559.81;5030976;28;20249;-81
2023/10/06 01:55:52;;;;;;;6.30;4.03;;;;;;;12.76;71.85;96554.00;5029950;28;20210;-81
2023/10/06 01:58:19;;;;;;;6.17;4.10;;;;;;;12.75;71.75;96544.63;5031304;28;20218;-81
2023/10/06 02:00:48;;;;;;;5.10;4.13;;;;;;;12.77;71.70;96545.28;5031677;28;20212;-80
2023/10/06 02:03:17;;;;;;;6.87;4.67;;;;;;;12.65;71.74;96547.41;5025268;28;20230;-80
2023/10/06 02:05:44;;;;;;;5.83;4.50;;;;;;;12.42;72.13;96549.88;5030967;28;20714;-81
2023/10/06 02:08:14;;;;;;;5.87;4.23;;;;;;;12.46;72.43;96560.69;5031205;28;20233;-80
2023/10/06 02:10:42;;;;;;;6.47;4.30;;;;;;;12.50;72.70;96556.81;5028451;28;20198;-81
2023/10/06 02:13:10;;;;;;;8.83;4.50;;;;;;;12.56;72.31;96552.75;5030561;28;20225;-81
2023/10/06 02:15:37;;;;;;;5.83;4.13;;;;;;;12.53;72.03;96546.13;5020377;28;20230;-80
2023/10/06 02:18:07;;;;;;;7.67;4.13;;;;;;;12.57;72.09;96539.69;5011839;28;20708;-80
2023/10/06 02:20:34;;;;;;;5.37;4.00;;;;;;;12.53;71.90;96547.91;5028922;28;20242;-80
2023/10/06 02:23:03;;;;;;;6.50;3.80;;;;;;;12.60;71.47;96531.59;5032511;28;20201;-82
2023/10/06 02:25:31;;;;;;;9.37;4.47;;;;;;;12.65;71.34;96516.41;5011844;28;20234;-81
2023/10/06 02:27:59;;;;;;;5.50;3.90;;;;;;;12.67;70.99;96519.63;5027542;28;20218;-80
2023/10/06 02:30:36;;;;;;;8.43;4.30;;;;;;;12.60;71.23;96515.28;5031670;28;20210;-81
2023/10/06 02:33:05;;;;;;;5.97;4.10;;;;;;;12.54;71.33;96521.09;5030255;28;20204;-81
2023/10/06 02:35:31;;;;;;;6.60;4.10;;;;;;;12.54;71.58;96521.91;5011552;28;20199;-81
2023/10/06 02:38:04;;;;;;;5.80;4.33;;;;;;;12.58;71.30;96525.78;5011734;28;20244;-81
2023/10/06 02:40:37;;;;;;;7.33;4.10;;;;;;;12.62;70.93;96521.91;5011449;28;20206;-82
2023/10/06 02:43:06;;;;;;;5.87;4.30;;;;;;;12.57;70.78;96516.41;5028050;28;20558;-81
2023/10/06 02:45:40;;;;;;;6.10;4.17;;;;;;;12.51;71.01;96509.31;5022221;28;20237;-81
2023/10/06 02:48:14;;;;;;;6.90;3.80;;;;;;;12.34;71.22;96513.72;5030872;28;20222;-81
2023/10/06 02:50:44;;;;;;;5.83;3.90;;;;;;;12.29;71.50;96523.75;5030779;28;20205;-80
2023/10/06 02:53:13;;;;;;;6.37;4.30;;;;;;;12.29;71.63;96515.22;5029439;28;20317;-82
2023/10/06 02:55:43;;;;;;;5.90;3.70;;;;;;;12.31;71.66;96524.41;5030638;28;20206;-82
2023/10/06 02:58:16;;;;;;;5.27;3.70;;;;;;;12.28;71.15;96511.00;5030756;28;20232;-82
2023/10/06 03:00:50;;;;;;;5.40;4.17;;;;;;;12.31;71.00;96508.91;5031136;28;20673;-81
2023/10/06 03:03:18;;;;;;;5.47;3.80;;;;;;;12.32;71.31;96514.84;5031479;28;20247;-81
2023/10/06 03:05:49;;;;;;;9.83;4.23;;;;;;;12.31;71.06;96511.50;5035349;28;20240;-80
2023/10/06 03:08:20;;;;;;;6.67;4.00;;;;;;;12.30;71.22;96509.06;5034198;28;20236;-81
2023/10/06 03:10:48;;;;;;;5.93;4.10;;;;;;;12.27;71.23;96506.81;5035060;28;20202;-81
2023/10/06 03:13:22;;;;;;;5.17;4.00;;;;;;;12.25;71.39;96506.97;5034324;28;20199;-81
2023/10/06 03:15:49;;;;;;;4.50;3.77;;;;;;;12.26;71.31;96507.78;5033410;28;20434;-81
2023/10/06 03:18:17;;;;;;;6.13;3.87;;;;;;;12.34;70.84;96492.25;5032376;28;20229;-81
2023/10/06 03:20:48;;;;;;;5.10;3.90;;;;;;;12.31;70.70;96482.28;5034829;28;20213;-80
2023/10/06 03:23:26;;;;;;;6.67;4.10;;;;;;;12.27;70.84;96486.97;5038194;28;20284;-80
2023/10/06 03:25:54;;;;;;;6.57;4.10;;;;;;;12.27;70.97;96492.13;5034904;28;20209;-81
2023/10/06 03:28:24;;;;;;;5.73;4.30;;;;;;;12.19;71.12;96505.03;5033945;28;20268;-81
2023/10/06 03:30:52;;;;;;;5.70;3.80;;;;;;;12.21;71.23;96499.72;5033721;28;20210;-81
2023/10/06 03:33:20;;;;;;;7.53;4.03;;;;;;;12.16;71.33;96504.56;5034631;28;20198;-81
2023/10/06 03:35:47;;;;;;;6.50;3.80;;;;;;;12.23;70.88;96508.91;5034290;28;20206;-81
2023/10/06 03:41:07;;;;;;;5.70;3.97;;;;;;;12.30;70.71;96504.72;5035548;28;20205;-82
2023/10/06 03:43:40;;;;;;;5.53;3.73;;;;;;;12.32;70.28;96486.44;5025938;28;20229;-81
2023/10/06 03:46:09;;;;;;;6.57;4.30;;;;;;;12.28;70.30;96483.41;5015700;28;20211;-81
2023/10/06 03:48:35;;;;;;;6.40;4.30;;;;;;;12.19;70.58;96486.16;5030691;28;20253;-82
2023/10/06 03:51:02;;;;;;;7.53;4.37;;;;;;;12.19;70.74;96504.22;5035660;28;20217;-82
2023/10/06 03:53:29;;;;;;;5.53;3.90;;;;;;;12.20;70.68;96501.50;5042115;28;20197;-82
2023/10/06 03:55:57;;;;;;;6.80;3.73;;;;;;;12.14;71.31;96514.22;5022281;28;20194;-81
2023/10/06 03:58:27;;;;;;;8.10;4.10;;;;;;;12.19;71.05;96505.03;5033363;28;20218;-80
2023/10/06 04:00:53;;;;;;;5.27;3.90;;;;;;;12.21;70.58;96494.56;5034526;28;20240;-81
2023/10/06 04:03:21;;;;;;;6.87;3.90;;;;;;;12.06;70.55;96491.84;5032604;28;20195;-81
2023/10/06 04:05:49;;;;;;;6.87;4.03;;;;;;;12.01;70.80;96501.84;5034734;28;20226;-81
2023/10/06 04:08:17;;;;;;;6.10;4.50;;;;;;;11.81;71.34;96516.03;5033291;28;20803;-82
2023/10/06 04:10:44;;;;;;;6.83;4.23;;;;;;;11.85;71.63;96528.47;5021947;28;20230;-81
2023/10/06 04:13:12;;;;;;;6.73;4.07;;;;;;;11.90;71.52;96523.63;5029340;28;20269;-82
2023/10/06 04:15:39;;;;;;;6.13;4.00;;;;;;;11.89;71.94;96528.94;5019372;28;20274;-81
2023/10/06 04:18:10;;;;;;;4.90;4.10;;;;;;;11.88;72.15;96540.22;5027288;28;20718;-81
2023/10/06 04:20:39;;;;;;;6.90;4.30;;;;;;;11.94;71.89;96540.38;5032890;28;20205;-81
2023/10/06 04:23:06;;;;;;;12.53;4.50;;;;;;;11.96;72.12;96538.44;5034423;28;20305;-83
2023/10/06 04:25:37;;;;;;;4.60;3.87;;;;;;;11.93;71.83;96538.00;5022120;28;20639;-82
2023/10/06 04:28:05;;;;;;;6.47;4.40;;;;;;;11.93;71.51;96527.66;5047851;28;20221;-81
2023/10/06 04:30:34;;;;;;;7.17;4.23;;;;;;;11.97;71.08;96510.88;5038748;28;20194;-82
2023/10/06 04:33:00;;;;;;;6.77;4.40;;;;;;;11.86;71.50;96517.16;5051603;28;20197;-80
2023/10/06 04:35:27;;;;;;;7.83;3.80;;;;;;;11.84;71.65;96519.09;5032238;28;20199;-80
2023/10/06 04:37:55;;;;;;;7.80;4.70;;;;;;;11.85;71.33;96512.97;5027120;28;20222;-81
2023/10/06 04:40:21;;;;;;;6.53;4.27;;;;;;;11.88;71.35;96506.69;5024596;28;20703;-81
2023/10/06 04:42:48;;;;;;;5.77;4.40;;;;;;;11.91;71.07;96514.13;5020137;28;20291;-80
2023/10/06 04:45:14;;;;;;;6.17;4.00;;;;;;;11.90;71.21;96508.16;5025905;28;20233;-80
2023/10/06 04:47:41;;;;;;;7.23;5.00;;;;;;;11.99;71.12;96506.34;5021973;28;20217;-82
2023/10/06 04:50:10;;;;;;;8.47;5.20;;;;;;;12.02;70.93;96499.09;5024003;28;20209;-82
2023/10/06 04:52:37;;;;;;;9.03;4.67;;;;;;;11.99;70.45;96481.34;5028003;28;20208;-81
2023/10/06 04:55:11;;;;;;;5.57;4.13;;;;;;;12.01;70.48;96482.00;5029893;28;20198;-82
2023/10/06 04:57:37;;;;;;;7.27;4.27;;;;;;;11.96;70.77;96496.34;5031878;28;20202;-82
2023/10/06 05:00:06;;;;;;;5.83;4.20;;;;;;;11.91;71.20;96496.84;5024016;28;20201;-82
2023/10/06 05:02:34;;;;;;;6.53;4.00;;;;;;;11.86;71.15;96495.72;5022366;28;20198;-82
2023/10/06 05:05:00;;;;;;;7.80;4.13;;;;;;;11.87;70.94;96484.44;5023191;28;20227;-81
2023/10/06 05:07:27;;;;;;;7.67;4.37;;;;;;;11.85;71.32;96491.53;5019180;28;20210;-81
2023/10/06 05:09:55;;;;;;;7.33;4.60;;;;;;;11.91;71.34;96491.69;5026716;28;20205;-81
2023/10/06 05:12:24;;;;;;;5.70;4.37;;;;;;;12.01;70.95;96483.75;5022986;28;20818;-81
2023/10/06 05:14:51;;;;;;;5.40;4.03;;;;;;;12.06;70.65;96478.94;5022642;28;20282;-81
2023/10/06 05:17:17;;;;;;;7.13;4.37;;;;;;;12.06;70.63;96468.59;5029837;28;20198;-81
2023/10/06 05:19:45;;;;;;;6.80;4.70;;;;;;;12.07;70.59;96483.94;5033786;28;20229;-82
2023/10/06 05:22:12;;;;;;;7.37;4.27;;;;;;;12.01;71.00;96496.66;5032662;28;20245;-81
2023/10/06 05:24:39;;;;;;;7.63;5.70;;;;;;;11.98;71.24;96505.53;5032669;28;20845;-83
2023/10/06 05:27:06;;;;;;;11.57;7.00;;;;;;;12.02;70.89;96487.97;5031087;28;20214;-82
2023/10/06 05:29:35;;;;;;;8.50;4.83;;;;;;;12.03;70.97;96487.00;5032474;28;20280;-83
2023/10/06 05:32:02;;;;;;;7.57;4.70;;;;;;;12.06;71.03;96495.22;5033112;28;20206;-83
2023/10/06 05:34:29;;;;;;;5.90;4.30;;;;;;;12.01;71.24;96512.16;5026764;28;20187;-83
2023/10/06 05:36:56;;;;;;;7.20;4.90;;;;;;;12.02;71.51;96506.03;5014237;28;20237;-82
2023/10/06 05:39:24;;;;;;;17.97;11.77;;;;;;;12.04;71.67;96524.75;5032056;28;20226;-83
2023/10/06 05:41:51;;;;;;;10.50;6.63;;;;;;;12.04;71.75;96528.13;5030201;28;20209;-82
2023/10/06 05:44:17;;;;;;;11.10;5.27;;;;;;;12.03;71.98;96526.53;5030977;28;20201;-81
2023/10/06 05:46:45;;;;;;;8.13;4.90;;;;;;;12.01;72.24;96536.19;5031195;28;20285;-80
2023/10/06 05:49:11;;;;;;;7.40;4.37;;;;;;;12.06;72.16;96538.31;5031550;28;20225;-81
2023/10/06 05:51:39;;;;;;;9.53;4.83;;;;;;;12.07;71.76;96530.41;5031759;28;20214;-81
2023/10/06 05:54:09;;;;;;;19.57;14.73;;;;;;;12.08;71.85;96537.19;5031607;28;20214;-81
2023/10/06 05:56:37;;;;;;;9.80;5.90;;;;;;;12.14;71.59;96545.22;5031222;28;20241;-82
2023/10/06 05:59:05;;;;;;;8.17;5.20;;;;;;;12.07;71.98;96542.50;5031632;28;20229;-81
2023/10/06 06:01:33;;;;;;;8.67;5.33;;;;;;;11.95;72.51;96546.34;5032437;28;20680;-81
2023/10/06 06:04:08;;;;;;;16.97;10.07;;;;;;;11.70;75.55;96626.31;5030683;28;20214;-80
2023/10/06 06:06:36;;;;;;;10.37;6.07;;;;;;;11.62;75.90;96644.31;5023567;28;20693;-81
2023/10/06 06:09:05;;;;;;;8.57;5.43;;;;;;;11.77;75.45;96635.03;5031384;28;20598;-81
2023/10/06 06:11:36;;;;;;;9.13;5.20;;;;;;;11.98;74.62;96613.13;5029634;28;20212;-80
2023/10/06 06:14:05;;;;;;;9.33;4.90;;;;;;;12.14;73.74;96600.25;5030864;28;20209;-81
2023/10/06 06:16:32;;;;;;;11.40;5.20;;;;;;;12.27;73.75;96599.78;5025262;28;20230;-81
2023/10/06 06:18:58;;;;;;;12.33;4.90;;;;;;;12.57;72.44;96586.19;5031845;28;20222;-81
2023/10/06 06:21:26;;;;;;;7.23;5.20;;;;;;;12.77;71.85;96571.13;5032096;28;20285;-82
2023/10/06 06:23:53;;;;;;;11.07;5.50;;;;;;;12.84;71.53;96548.81;5037116;28;20197;-81
2023/10/06 06:26:20;;;;;;;8.03;5.43;;;;;;;13.13;70.55;96530.09;5030945;28;20222;-81
2023/10/06 06:28:46;;;;;;;7.10;4.50;;;;;;;13.21;69.48;96493.09;5029729;28;20295;-82
2023/10/06 06:31:16;;;;;;;10.77;5.27;;;;;;;13.51;68.83;96484.47;5032032;28;20210;-81
2023/10/06 06:33:43;;;;;;;7.90;5.37;;;;;;;13.83;68.00;96460.97;5031248;28;20202;-81
2023/10/06 06:36:09;;;;;;;8.97;5.60;;;;;;;14.00;67.74;96445.28;5031513;28;20205;-81
2023/10/06 06:38:39;;;;;;;7.57;5.20;;;;;;;14.20;66.84;96419.66;5031141;28;20229;-82
2023/10/06 06:41:06;;;;;;;9.63;5.50;;;;;;;14.49;65.87;96401.53;5031495;28;20204;-82
2023/10/06 06:43:32;;;;;;;8.00;4.93;;;;;;;14.81;64.99;96371.81;5025197;28;20247;-82
2023/10/06 06:45:59;;;;;;;6.37;4.87;;;;;;;15.06;64.46;96352.31;5030210;28;20749;-80
2023/10/06 06:48:26;;;;;;;36.40;29.47;;;;;;;15.26;63.80;96334.31;5031072;28;20217;-81
2023/10/06 06:50:52;;;;;;;15.38;9.73;;;;;;;15.30;64.18;96332.16;5031085;28;20205;-79
2023/10/06 06:53:19;;;;;;;8.35;6.10;;;;;;;15.53;63.84;96351.72;5039145;28;20293;-81
2023/10/06 06:55:47;;;;;;;10.90;5.75;;;;;;;15.75;63.20;96325.75;5040414;28;20256;-82
2023/10/06 06:58:16;;;;;;;9.60;6.05;;;;;;;15.89;62.59;96312.66;5028902;28;20276;-82
2023/10/06 07:00:43;;;;;;;9.50;5.43;;;;;;;16.07;61.60;96261.97;5026823;28;20214;-82
2023/10/06 07:03:11;;;;;;;10.98;5.45;;;;;;;16.26;61.15;96242.25;5028335;28;20206;-82
2023/10/06 07:05:38;;;;;;;11.73;5.22;;;;;;;16.49;60.52;96227.13;5031854;28;20218;-81
2023/10/06 07:08:05;;;;;;;7.78;5.28;;;;;;;16.61;60.07;96206.53;5032642;28;20233;-82
2023/10/06 07:10:32;;;;;;;11.77;5.78;;;;;;;16.67;59.96;96196.19;5031947;28;20202;-82
2023/10/06 07:13:00;;;;;;;11.02;5.63;;;;;;;16.71;60.30;96207.78;5033322;28;20553;-82
2023/10/06 07:15:29;;;;;;;10.27;5.28;;;;;;;16.62;59.89;96188.13;5024617;28;20195;-81
2023/10/06 07:17:57;;;;;;;9.07;5.32;;;;;;;16.80;59.99;96200.56;5030992;28;20229;-83
2023/10/06 07:20:27;;;;;;;9.00;5.50;;;;;;;17.06;59.24;96177.16;5032856;28;20700;-81
2023/10/06 07:22:55;;;;;;;9.05;5.70;;;;;;;17.35;58.79;96142.03;5032402;28;20203;-81
2023/10/06 07:25:24;;;;;;;18.02;6.30;;;;;;;17.57;58.23;96129.56;5032434;28;20225;-82
2023/10/06 07:27:52;;;;;;;11.88;5.25;;;;;;;17.55;57.89;96121.94;5032534;28;20248;-82
2023/10/06 07:30:22;;;;;;;10.25;6.03;;;;;;;17.42;58.23;96129.81;5032401;28;20206;-83
2023/10/06 07:32:50;;;;;;;8.63;5.45;;;;;;;17.46;58.48;96151.03;5030813;28;20206;-81
2023/10/06 07:35:18;;;;;;;10.55;5.13;;;;;;;17.76;58.00;96133.91;5028977;28;20210;-82
2023/10/06 07:37:45;;;;;;;8.30;5.20;;;;;;;18.01;57.35;96120.16;5032363;28;20202;-82
2023/10/06 07:40:18;;;;;;;10.68;5.22;;;;;;;18.16;56.77;96087.59;5032675;28;20202;-81
2023/10/06 07:42:48;;;;;;;7.90;5.28;;;;;;;18.44;56.23;96063.72;5028245;28;20987;-81
2023/10/06 07:45:15;;;;;;;5.90;4.80;;;;;;;18.64;55.51;96024.44;5024125;28;20218;-82
2023/10/06 07:47:43;;;;;;;9.20;5.40;;;;;;;18.85;54.65;95991.94;5031208;28;20198;-81
2023/10/06 07:50:13;;;;;;;7.32;5.43;;;;;;;19.11;54.67;95998.63;5028185;28;20206;-83
2023/10/06 07:52:41;;;;;;;13.82;5.47;;;;;;;19.20;54.35;95979.84;5024051;28;20285;-83
2023/10/06 07:55:09;;;;;;;8.32;5.43;;;;;;;19.33;54.35;95966.63;5018445;28;20198;-82
2023/10/06 07:57:37;;;;;;;7.10;5.30;;;;;;;19.47;53.68;95950.75;5034607;28;20289;-83
2023/10/06 08:00:06;;;;;;;11.02;5.20;;;;;;;19.69;53.18;95920.50;5029669;28;20195;-83
2023/10/06 08:02:33;;;;;;;7.70;5.10;;;;;;;19.84;53.03;95920.88;5033693;28;20202;-81
2023/10/06 08:05:01;;;;;;;11.18;8.82;;;;;;;19.96;52.87;95894.75;5032760;28;20210;-81
2023/10/06 08:07:28;;;;;;;12.35;9.23;;;;;;;20.19;52.22;95873.03;5031871;28;20209;-83
2023/10/06 08:09:58;;;;;;;7.22;4.93;;;;;;;20.28;51.86;95866.41;5033471;28;20213;-82
2023/10/06 08:12:25;;;;;;;7.72;5.53;;;;;;;20.33;52.01;95854.25;5030899;28;20281;-81
2023/10/06 08:14:51;;;;;;;9.43;5.38;;;;;;;20.23;52.13;95866.28;5031566;28;20198;-83
2023/10/06 08:17:19;;;;;;;8.25;5.57;;;;;;;20.51;52.81;95897.00;5033198;28;20198;-82
2023/10/06 08:19:46;;;;;;;7.93;5.32;;;;;;;20.65;51.54;95846.00;5031490;28;20222;-82
2023/10/06 08:22:14;;;;;;;6.68;5.05;;;;;;;20.76;51.56;95845.16;5031355;28;20229;-83
2023/10/06 08:24:40;;;;;;;11.65;6.07;;;;;;;20.88;51.16;95817.13;5031597;28;20196;-81
2023/10/06 08:27:07;;;;;;;8.82;5.38;;;;;;;21.02;51.00;95813.16;5030530;28;20241;-82
2023/10/06 08:29:34;;;;;;;9.73;5.30;;;;;;;20.88;50.92;95801.41;5034047;28;20226;-82
2023/10/06 08:32:02;;;;;;;8.32;5.30;;;;;;;20.87;51.24;95806.88;5034126;28;20194;-83
2023/10/06 08:34:30;;;;;;;7.60;5.38;;;;;;;20.90;51.06;95811.66;5032246;28;20267;-82
2023/10/06 08:36:57;;;;;;;6.68;5.28;;;;;;;20.93;51.82;95860.91;5031411;28;20210;-81
2023/10/06 08:39:38;;;;;;;7.63;5.43;;;;;;;21.16;51.31;95825.97;5034250;28;20242;-82
2023/10/06 08:42:10;;;;;;;7.43;4.80;;;;;;;21.18;50.93;95782.78;5034292;28;20304;-82
2023/10/06 08:44:38;;;;;;;6.22;5.10;;;;;;;21.19;50.96;95797.47;5031388;28;20205;-84
2023/10/06 08:47:07;;;;;;;7.72;5.03;;;;;;;21.37;50.72;95770.25;5032124;28;20222;-82
2023/10/06 08:49:34;;;;;;;9.35;5.28;;;;;;;21.57;50.65;95777.63;5031093;28;20699;-84
2023/10/06 08:52:01;;;;;;;5.93;5.25;;;;;;;21.71;50.24;95752.69;5029912;28;20201;-84
2023/10/06 08:54:32;;;;;;;9.30;5.00;;;;;;;21.75;49.96;95752.97;5031281;28;20352;-83
2023/10/06 08:56:58;;;;;;;14.93;13.45;;;;;;;21.66;50.12;95756.03;5031238;28;20198;-84
2023/10/06 08:59:25;;;;;;;10.10;7.93;;;;;;;21.78;50.24;95761.16;5029907;28;20218;-84
2023/10/06 09:01:51;;;;;;;5.93;5.28;;;;;;;21.83;50.01;95729.78;5037487;28;20206;-84
2023/10/06 09:04:19;;;;;;;6.70;4.60;;;;;;;21.89;50.11;95722.78;5035326;28;20707;-83
2023/10/06 09:07:08;;;;;;;5.30;4.50;;;;;;;21.96;49.70;95720.72;5033812;28;20261;-82
2023/10/06 09:09:37;;;;;;;6.20;5.00;;;;;;;21.91;49.91;95731.97;5035883;28;20230;-84
2023/10/06 09:12:04;;;;;;;5.82;4.88;;;;;;;21.90;49.91;95724.34;5034636;28;20198;-84
2023/10/06 09:14:31;;;;;;;6.65;4.90;;;;;;;21.76;50.47;95726.53;5032703;28;20207;-83
2023/10/06 09:17:01;;;;;;;7.32;4.85;;;;;;;21.68;51.02;95784.63;5035923;28;20198;-82
2023/10/06 09:19:47;;;;;;;7.22;4.40;;;;;;;21.74;51.42;95814.31;5036068;28;20707;-84
2023/10/06 09:22:14;;;;;;;7.60;4.75;;;;;;;21.85;51.00;95784.59;5040383;28;20268;-84
2023/10/06 09:24:41;;;;;;;6.95;4.72;;;;;;;21.87;50.77;95777.28;5051852;28;20856;-84
2023/10/06 09:27:21;;;;;;;9.15;4.80;;;;;;;21.85;50.48;95753.91;5055055;28;20225;-84
2023/10/06 09:29:48;;;;;;;8.93;4.50;;;;;;;21.78;51.07;95774.25;5042830;28;20257;-84
2023/10/06 09:32:21;;;;;;;6.43;4.30;;;;;;;21.71;51.01;95761.34;5033264;28;20198;-82
2023/10/06 09:34:53;;;;;;;7.88;4.78;;;;;;;21.73;51.15;95768.19;5014699;28;20210;-84
2023/10/06 09:37:20;;;;;;;5.80;4.35;;;;;;;21.81;51.06;95773.78;5015396;28;20198;-84
2023/10/06 09:39:56;;;;;;;6.07;4.78;;;;;;;21.85;50.74;95743.44;5014021;28;20250;-84
2023/10/06 09:42:27;;;;;;;5.93;4.38;;;;;;;21.91;50.94;95778.38;5023292;28;20228;-82
2023/10/06 09:45:05;;;;;;;7.63;5.00;;;;;;;21.99;50.90;95788.44;5019662;28;20248;-83
2023/10/06 09:47:35;;;;;;;6.05;4.53;;;;;;;22.13;50.97;95775.81;5033571;28;20222;-84
2023/10/06 09:50:03;;;;;;;6.38;4.80;;;;;;;22.19;50.11;95746.75;5032992;28;20218;-84
2023/10/06 09:52:34;;;;;;;5.25;4.63;;;;;;;22.22;49.93;95719.25;5029350;28;20236;-85
2023/10/06 09:55:04;;;;;;;5.60;4.68;;;;;;;22.16;49.41;95704.47;5034898;28;20217;-84
2023/10/06 09:57:32;;;;;;;6.25;4.53;;;;;;;22.05;49.91;95691.25;5035000;28;20729;-83
2023/10/06 10:00:01;;;;;;;5.85;5.22;;;;;;;21.79;49.79;95684.09;5035051;28;20278;-84
2023/10/06 10:02:29;;;;;;;5.43;4.47;;;;;;;21.45;50.09;95680.78;5036267;28;20202;-82
2023/10/06 10:04:59;;;;;;;5.10;4.53;;;;;;;21.34;50.71;95724.41;5034182;28;20293;-83
2023/10/06 10:07:28;;;;;;;6.25;4.53;;;;;;;21.04;52.25;95818.97;5036967;28;20316;-85
2023/10/06 10:09:59;;;;;;;5.53;4.60;;;;;;;20.88;52.32;95792.75;5038431;28;20253;-85
2023/10/06 10:12:37;;;;;;;5.60;5.05;;;;;;;20.85;52.45;95809.72;5039999;28;20205;-85
2023/10/06 10:15:22;;;;;;;7.40;5.03;;;;;;;20.97;52.41;95831.38;5032436;28;20236;-85
2023/10/06 10:17:58;;;;;;;7.72;6.78;;;;;;;21.15;52.48;95846.13;5017376;28;21053;-85
2023/10/06 10:20:26;;;;;;;6.85;6.00;;;;;;;21.24;50.37;95707.75;5034473;28;20220;-84
2023/10/06 10:22:56;;;;;;;8.05;6.43;;;;;;;21.38;50.78;95708.97;5038646;28;20206;-85
2023/10/06 10:25:24;;;;;;;5.93;4.68;;;;;;;21.38;50.39;95703.75;5054449;28;20209;-84
2023/10/06 10:28:17;;;;;;;4.88;4.03;;;;;;;21.20;49.67;95655.03;5028311;28;20256;-85
2023/10/06 10:30:57;;;;;;;4.82;4.00;;;;;;;21.23;49.93;95680.75;5029853;28;20226;-84
2023/10/06 10:33:25;;;;;;;5.93;4.13;;;;;;;21.22;50.40;95689.66;5034781;28;20198;-84
2023/10/06 10:36:19;;;;;;;4.65;4.05;;;;;;;21.29;50.45;95694.72;5028597;28;20198;-84
2023/10/06 10:38:57;;;;;;;5.75;4.07;;;;;;;21.22;50.44;95702.75;5035497;28;20236;-84
2023/10/06 10:41:26;;;;;;;18.90;17.00;;;;;;;21.17;50.95;95707.88;5035126;28;20233;-85
2023/10/06 10:43:55;;;;;;;26.73;24.13;;;;;;;21.21;51.46;95752.72;5029023;28;20198;-84
2023/10/06 10:46:31;;;;;;;8.88;6.32;;;;;;;21.28;50.87;95693.94;5026494;28;20225;-84
2023/10/06 10:48:58;;;;;;;5.88;5.00;;;;;;;21.16;50.64;95689.81;5033168;28;20214;-85
2023/10/06 10:51:25;;;;;;;5.07;4.57;;;;;;;21.24;50.99;95710.34;5034064;28;20203;-84
2023/10/06 10:53:54;;;;;;;6.13;3.78;;;;;;;21.30;50.95;95704.16;5036969;28;20690;-84
2023/10/06 10:56:33;;;;;;;4.85;3.88;;;;;;;21.24;50.51;95661.38;5037168;28;20198;-85
2023/10/06 10:59:02;;;;;;;4.55;3.92;;;;;;;21.27;51.36;95717.75;5038190;28;20225;-84
2023/10/06 11:01:34;;;;;;;6.78;3.65;;;;;;;21.32;50.46;95662.81;5033037;28;20198;-86
2023/10/06 11:04:21;;;;;;;3.75;3.38;;;;;;;21.27;49.24;95586.78;5030055;28;20217;-86
2023/10/06 11:07:06;;;;;;;7.07;3.53;;;;;;;21.27;49.78;95631.31;5022441;28;20221;-86
2023/10/06 11:16:46;;;;;;;4.18;3.67;;;;;;;20.90;48.69;95569.00;4889926;29;20250;-87
2023/10/06 11:19:16;;;;;;;4.60;3.42;;;;;;;20.92;47.83;95525.06;4982560;28;20220;-85
2023/10/06 11:21:44;;;;;;;3.95;3.40;;;;;;;20.92;49.07;95574.78;5011314;28;20213;-86
2023/10/06 11:24:10;;;;;;;4.95;3.47;;;;;;;20.99;48.49;95559.69;5036611;28;20210;-85
2023/10/06 11:26:39;;;;;;;5.07;3.33;;;;;;;21.15;49.10;95567.75;5033757;28;20229;-85
2023/10/06 11:29:05;;;;;;;5.97;3.50;;;;;;;21.14;48.70;95559.13;5034157;28;20802;-84
2023/10/06 11:31:32;;;;;;;5.40;3.42;;;;;;;21.23;48.94;95581.25;5035803;28;20206;-84
2023/10/06 11:33:59;;;;;;;4.47;3.42;;;;;;;21.34;48.27;95535.03;5035014;28;20209;-84
2023/10/06 11:36:27;;;;;;;7.10;3.65;;;;;;;21.47;47.64;95507.66;5034273;28;20190;-85
2023/10/06 11:38:54;;;;;;;3.83;3.35;;;;;;;21.58;47.90;95497.00;5034200;28;20570;-84
2023/10/06 11:41:24;;;;;;;5.50;3.20;;;;;;;21.78;47.99;95506.09;5033144;28;20201;-84
2023/10/06 11:43:54;;;;;;;4.97;3.35;;;;;;;21.92;47.32;95492.38;5027352;28;20245;-84
2023/10/06 11:46:21;;;;;;;18.27;16.50;;;;;;;21.99;46.84;95458.03;5022741;28;20301;-84
2023/10/06 11:48:48;;;;;;;6.78;5.68;;;;;;;21.98;45.79;95388.28;5035306;28;20337;-85
2023/10/06 11:51:15;;;;;;;5.07;3.63;;;;;;;21.97;46.05;95403.25;5034877;28;20206;-85